Time;durP1;ratioP1;P1;durP2;ratioP2;P2;SDS_P1;SDS_P2;PMS_P1;PMS_P2;Temp;Humidity;BMP_temperature;BMP_pressure;BME280_temperature;BME280_humidity;BME280_pressure;Samples;Min_cycle;Max_cycle;Signal;HPM_P1;HPM_P2
2022/10/06 12:16:33;;;;;;;;;;;20.10;91.10;;;;;;5108311;27;1805;-74
2022/10/06 12:19:04;;;;;;;;;;;20.80;88.00;;;;;;5088985;28;789;-74
2022/10/06 12:21:30;;;;;;;;;;;;;;;;;;5088633;28;1189;-69
2022/10/06 12:24:01;;;;;;;;;;;21.50;82.80;;;;;;5089554;28;829;-72
2022/10/06 12:26:28;;;;;;;;;;;21.60;86.90;;;;;;5080911;28;1131;-74
2022/10/06 12:28:54;;;;;;;;;;;;;;;;;;5078619;28;1222;-72
2022/10/06 12:31:20;;;;;;;;;;;21.60;82.10;;;;;;5080165;28;3155;-73
2022/10/06 12:33:46;;;;;;;;;;;20.70;80.20;;;;;;5078451;28;1250;-73
2022/10/06 12:36:27;;;;;;;;;;;19.80;85.00;;;;;;5078370;28;1926;-73
2022/10/06 12:38:59;;;;;;;;;;;19.50;87.60;;;;;;5081939;28;1270;-73
2022/10/06 12:41:44;;;;;;;;;;;19.30;86.50;;;;;;5077090;28;1268;-73
2022/10/06 12:44:21;;;;;;;;;;;19.20;86.20;;;;;;5059812;28;1276;-73
2022/10/06 12:46:48;;;;;;;;;;;19.70;86.60;;;;;;5077150;28;1258;-73
2022/10/06 12:49:13;;;;;;;;;;;19.50;85.60;;;;;;5088396;28;1828;-73
2022/10/06 12:51:43;;;;;;;;;;;19.40;86.00;;;;;;5088715;28;1003;-73
2022/10/06 12:54:19;;;;;;;;;;;19.60;83.50;;;;;;5089451;28;1914;-73
2022/10/06 12:57:03;;;;;;;;;;;19.70;84.00;;;;;;5089292;28;1133;-73
2022/10/06 12:59:31;;;;;;;;;;;19.90;85.60;;;;;;5089356;28;1062;-73
2022/10/06 13:01:58;;;;;;;;;;;20.10;85.80;;;;;;5089722;28;971;-74
2022/10/06 13:04:33;;;;;;;;;;;20.50;82.60;;;;;;5088328;28;1156;-73
2022/10/06 13:07:02;;;;;;;;;;;20.70;82.60;;;;;;5081405;28;9696;-73
2022/10/06 13:09:27;;;;;;;;;;;20.80;82.30;;;;;;5081364;28;1312;-73
2022/10/06 13:11:53;;;;;;;;;;;21.30;81.10;;;;;;5088720;28;849;-73
2022/10/06 13:14:18;;;;;;;;;;;21.00;82.70;;;;;;5088757;28;1976;-74
2022/10/06 13:16:45;;;;;;;;;;;20.40;82.70;;;;;;5109677;28;1067;-73
2022/10/06 13:19:16;;;;;;;;;;;20.20;85.40;;;;;;5090790;28;968;-73
2022/10/06 13:21:41;;;;;;;;;;;20.00;82.90;;;;;;5109055;28;861;-73
2022/10/06 13:24:12;;;;;;;;;;;20.30;83.50;;;;;;5090717;28;1166;-73
2022/10/06 13:26:38;;;;;;;;;;;20.60;80.60;;;;;;5096220;28;1247;-73
2022/10/06 13:29:15;;;;;;;;;;;20.10;79.40;;;;;;5086024;28;1381;-73
2022/10/06 13:31:44;;;;;;;;;;;19.90;81.10;;;;;;5085701;28;1195;-73
2022/10/06 13:34:11;;;;;;;;;;;19.60;80.40;;;;;;5086044;28;1914;-73
2022/10/06 13:36:39;;;;;;;;;;;19.70;84.60;;;;;;5084767;28;1187;-73
2022/10/06 13:39:05;;;;;;;;;;;19.80;85.00;;;;;;5084836;28;1228;-74
2022/10/06 13:41:33;;;;;;;;;;;20.10;83.60;;;;;;5090105;28;1195;-74
2022/10/06 13:44:01;;;;;;;;;;;20.10;82.60;;;;;;5071589;28;1616;-73
2022/10/06 13:46:28;;;;;;;;;;;20.40;83.20;;;;;;5074014;28;1102;-74
2022/10/06 13:49:02;;;;;;;;;;;20.70;81.40;;;;;;5078874;28;1135;-73
2022/10/06 13:51:29;;;;;;;;;;;21.00;82.30;;;;;;5095347;28;1088;-74
2022/10/06 13:53:57;;;;;;;;;;;21.40;81.10;;;;;;5059751;28;1019;-74
2022/10/06 13:56:32;;;;;;;;;;;21.10;79.20;;;;;;5084373;28;1969;-73
2022/10/06 13:59:14;;;;;;;;;;;20.80;80.20;;;;;;5094788;28;1189;-74
2022/10/06 14:01:41;;;;;;;;;;;20.40;79.50;;;;;;5076585;28;916;-73
2022/10/06 14:04:11;;;;;;;;;;;20.10;85.50;;;;;;5076691;28;1016;-74
2022/10/06 14:06:43;;;;;;;;;;;20.10;81.60;;;;;;5073094;28;1294;-74
2022/10/06 14:09:10;;;;;;;;;;;20.00;81.50;;;;;;5080792;28;1632;-72
2022/10/06 14:11:36;;;;;;;;;;;19.60;82.60;;;;;;5094784;28;1200;-74
2022/10/06 14:14:03;;;;;;;;;;;20.00;81.40;;;;;;5076924;28;1882;-75
2022/10/06 14:16:29;;;;;;;;;;;19.90;82.30;;;;;;5093397;28;1914;-74
2022/10/06 14:18:59;;;;;;;;;;;20.30;77.80;;;;;;5094460;28;952;-74
2022/10/06 14:21:31;;;;;;;;;;;20.40;79.50;;;;;;5094060;28;1075;-75
2022/10/06 14:23:57;;;;;;;;;;;20.50;75.80;;;;;;5094327;28;1153;-75
2022/10/06 14:26:24;;;;;;;;;;;20.30;76.30;;;;;;5094038;28;802;-74
2022/10/06 14:28:51;;;;;;;;;;;20.10;80.20;;;;;;5093873;28;863;-73
2022/10/06 14:31:19;;;;;;;;;;;20.00;78.40;;;;;;5073292;28;3149;-74
2022/10/06 14:33:46;;;;;;;;;;;19.60;79.90;;;;;;5071693;28;1182;-75
2022/10/06 14:36:14;;;;;;;;;;;20.10;81.10;;;;;;5073404;28;1976;-74
2022/10/06 14:38:40;;;;;;;;;;;20.00;83.00;;;;;;5073330;28;873;-75
2022/10/06 14:41:06;;;;;;;;;;;20.30;82.30;;;;;;5073902;28;850;-75
2022/10/06 14:43:31;;;;;;;;;;;20.60;79.10;;;;;;5090005;28;1346;-74
2022/10/06 14:45:58;;;;;;;;;;;20.10;77.80;;;;;;5094334;28;1177;-73
2022/10/06 14:48:23;;;;;;;;;;;19.70;80.70;;;;;;5093894;28;1016;-75
2022/10/06 14:50:49;;;;;;;;;;;19.90;81.10;;;;;;5093257;28;1158;-75
2022/10/06 14:53:16;;;;;;;;;;;20.20;82.40;;;;;;5094219;28;964;-74
2022/10/06 14:55:42;;;;;;;;;;;20.00;82.80;;;;;;5075894;28;1914;-75
2022/10/06 14:58:08;;;;;;;;;;;19.80;84.70;;;;;;5093660;28;1062;-75
2022/10/06 15:00:34;;;;;;;;;;;19.80;82.60;;;;;;5093815;28;1161;-74
2022/10/06 15:02:59;;;;;;;;;;;19.70;82.90;;;;;;5094053;28;1015;-74
2022/10/06 15:05:25;;;;;;;;;;;19.30;83.60;;;;;;5074525;28;987;-74
2022/10/06 15:08:09;;;;;;;;;;;19.30;84.70;;;;;;5093549;28;1099;-75
2022/10/06 15:10:37;;;;;;;;;;;18.80;85.90;;;;;;5091340;28;1349;-74
2022/10/06 15:13:05;;;;;;;;;;;18.80;85.30;;;;;;5094093;28;1047;-75
2022/10/06 15:15:32;;;;;;;;;;;18.50;88.10;;;;;;5093503;28;1917;-74
2022/10/06 15:17:59;;;;;;;;;;;18.70;90.00;;;;;;5092053;28;1181;-72
2022/10/06 15:20:25;;;;;;;;;;;18.50;86.90;;;;;;5093470;28;1103;-73
2022/10/06 15:22:51;;;;;;;;;;;18.40;87.60;;;;;;5092019;28;1215;-73
2022/10/06 15:30:45;;;;;;;;;;;18.40;87.60;;;;;;5071746;28;1293;-72
2022/10/06 15:33:11;;;;;;;;;;;18.60;89.00;;;;;;5092268;28;1285;-73
2022/10/06 15:35:36;;;;;;;;;;;18.30;86.50;;;;;;5074249;28;1975;-72
2022/10/06 15:38:02;;;;;;;;;;;18.00;88.00;;;;;;5093535;28;1039;-72
2022/10/06 15:40:28;;;;;;;;;;;17.60;88.50;;;;;;5067683;28;1314;-72
2022/10/06 15:42:53;;;;;;;;;;;17.80;89.30;;;;;;5082351;28;1238;-72
2022/10/06 15:45:20;;;;;;;;;;;17.50;89.60;;;;;;5085741;28;1276;-72
2022/10/06 15:47:45;;;;;;;;;;;17.70;90.70;;;;;;5081856;28;1219;-72
2022/10/06 15:50:11;;;;;;;;;;;17.70;90.40;;;;;;5083965;28;1199;-72
2022/10/06 15:52:37;;;;;;;;;;;17.80;90.30;;;;;;5081137;28;1183;-72
2022/10/06 15:55:02;;;;;;;;;;;17.30;91.60;;;;;;5082662;28;1972;-72
2022/10/06 15:57:29;;;;;;;;;;;16.80;92.60;;;;;;5092513;28;1223;-72
2022/10/06 15:59:55;;;;;;;;;;;16.30;94.10;;;;;;5074389;28;920;-72
2022/10/06 16:02:21;;;;;;;;;;;15.90;94.30;;;;;;5092283;28;1169;-71
2022/10/06 16:07:20;;;;;;;;;;;15.50;97.30;;;;;;5092252;28;857;-71
2022/10/06 16:09:47;;;;;;;;;;;15.30;98.70;;;;;;5092269;28;1429;-71
2022/10/06 16:12:15;;;;;;;;;;;15.20;98.50;;;;;;5092365;28;1123;-71
2022/10/06 16:14:41;;;;;;;;;;;15.20;99.50;;;;;;5092121;28;1918;-71
2022/10/06 16:17:08;;;;;;;;;;;15.10;99.40;;;;;;5091436;28;845;-70
2022/10/06 16:19:37;;;;;;;;;;;14.90;99.90;;;;;;5092294;28;1162;-71
2022/10/06 16:22:03;;;;;;;;;;;14.90;99.90;;;;;;5074123;28;1246;-72
2022/10/06 16:24:30;;;;;;;;;;;14.80;99.90;;;;;;5092687;28;1189;-71
2022/10/06 16:26:56;;;;;;;;;;;14.70;99.90;;;;;;5092557;28;1125;-71
2022/10/06 16:29:22;;;;;;;;;;;14.60;99.90;;;;;;5091644;28;1157;-71
2022/10/06 16:31:48;;;;;;;;;;;14.70;99.90;;;;;;5093050;28;885;-71
2022/10/06 16:34:14;;;;;;;;;;;14.80;99.90;;;;;;5092359;28;1905;-71
2022/10/06 16:36:40;;;;;;;;;;;14.70;99.90;;;;;;5091386;28;1184;-71
2022/10/06 16:39:06;;;;;;;;;;;14.60;99.90;;;;;;5092528;28;1039;-71
2022/10/06 16:41:32;;;;;;;;;;;14.50;99.90;;;;;;5074015;28;1309;-71
2022/10/06 16:43:58;;;;;;;;;;;14.40;99.90;;;;;;5086775;28;1611;-70
2022/10/06 16:46:25;;;;;;;;;;;14.30;99.90;;;;;;5080460;28;1217;-70
2022/10/06 16:48:52;;;;;;;;;;;14.10;99.90;;;;;;5092261;28;1062;-71
2022/10/06 16:51:20;;;;;;;;;;;13.90;99.90;;;;;;5091522;28;1125;-71
2022/10/06 16:53:48;;;;;;;;;;;13.80;99.90;;;;;;5089407;28;1128;-71
2022/10/06 16:56:16;;;;;;;;;;;13.70;99.90;;;;;;5081457;28;1965;-71
2022/10/06 16:58:43;;;;;;;;;;;13.60;99.90;;;;;;5085489;28;1224;-71
2022/10/06 17:01:09;;;;;;;;;;;13.50;99.90;;;;;;5071155;28;1633;-70
2022/10/06 17:03:35;;;;;;;;;;;13.40;99.90;;;;;;5083903;28;1250;-71
2022/10/06 17:06:01;;;;;;;;;;;13.50;99.90;;;;;;5087412;28;1341;-70
2022/10/06 17:08:27;;;;;;;;;;;13.20;99.90;;;;;;5087614;28;1295;-71
2022/10/06 17:10:58;;;;;;;;;;;13.10;99.90;;;;;;5093732;28;1227;-71
2022/10/06 17:13:24;;;;;;;;;;;13.10;99.90;;;;;;5095873;28;1150;-70
2022/10/06 17:15:57;;;;;;;;;;;13.00;99.90;;;;;;5095770;28;1981;-70
2022/10/06 17:18:22;;;;;;;;;;;12.90;99.90;;;;;;5095068;28;1031;-71
2022/10/06 17:20:52;;;;;;;;;;;12.80;99.90;;;;;;5096013;28;1170;-70
2022/10/06 17:23:18;;;;;;;;;;;12.70;99.90;;;;;;5075340;28;1158;-70
2022/10/06 17:25:43;;;;;;;;;;;12.70;99.90;;;;;;5074510;28;995;-70
2022/10/06 17:28:10;;;;;;;;;;;12.60;99.90;;;;;;5075701;28;1008;-70
2022/10/06 17:30:35;;;;;;;;;;;12.50;99.90;;;;;;5082932;28;1186;-70
2022/10/06 17:33:01;;;;;;;;;;;12.50;99.90;;;;;;5092125;28;3821;-70
2022/10/06 17:35:26;;;;;;;;;;;12.40;99.90;;;;;;5094328;28;3824;-70
2022/10/06 17:37:53;;;;;;;;;;;12.40;99.90;;;;;;5095153;28;1031;-70
2022/10/06 17:40:18;;;;;;;;;;;12.40;99.90;;;;;;5093136;28;3456;-71
2022/10/06 17:42:44;;;;;;;;;;;12.30;99.90;;;;;;5095346;28;1055;-70
2022/10/06 17:45:10;;;;;;;;;;;12.30;99.90;;;;;;5095077;28;1517;-71
2022/10/06 17:47:35;;;;;;;;;;;12.20;99.90;;;;;;5075289;28;1129;-71
2022/10/06 17:50:01;;;;;;;;;;;12.10;99.90;;;;;;5094853;28;1154;-70
2022/10/06 17:52:26;;;;;;;;;;;12.20;99.90;;;;;;5087105;28;4036;-70
2022/10/06 17:54:53;;;;;;;;;;;12.10;99.90;;;;;;5089040;28;2405;-70
2022/10/06 17:57:18;;;;;;;;;;;12.00;99.90;;;;;;5080992;28;2491;-70
2022/10/06 17:59:44;;;;;;;;;;;12.10;99.90;;;;;;5092560;28;1189;-70
2022/10/06 18:02:12;;;;;;;;;;;12.20;99.90;;;;;;5094513;28;1032;-70
2022/10/06 18:04:38;;;;;;;;;;;12.20;99.90;;;;;;5085690;28;2416;-70
2022/10/06 18:07:04;;;;;;;;;;;12.30;99.90;;;;;;5087522;28;2241;-70
2022/10/06 18:09:29;;;;;;;;;;;12.20;99.90;;;;;;5066687;28;2269;-70
2022/10/06 18:11:57;;;;;;;;;;;12.10;99.90;;;;;;5082532;28;2293;-70
2022/10/06 18:14:24;;;;;;;;;;;12.00;99.90;;;;;;5092863;28;2535;-70
2022/10/06 18:16:55;;;;;;;;;;;11.90;99.90;;;;;;5093875;28;1141;-70
2022/10/06 18:19:24;;;;;;;;;;;11.80;99.90;;;;;;5086592;28;2514;-70
2022/10/06 18:21:50;;;;;;;;;;;11.90;99.90;;;;;;5073707;28;813;-70
2022/10/06 18:24:19;;;;;;;;;;;12.00;99.90;;;;;;5069389;28;1505;-70
2022/10/06 18:26:47;;;;;;;;;;;12.00;99.90;;;;;;5094225;28;930;-70
2022/10/06 18:29:13;;;;;;;;;;;12.10;99.90;;;;;;5069267;28;2551;-70
2022/10/06 18:31:39;;;;;;;;;;;12.10;99.90;;;;;;5093675;28;1157;-70
2022/10/06 18:34:05;;;;;;;;;;;12.10;99.90;;;;;;5093275;28;1122;-70
2022/10/06 18:36:31;;;;;;;;;;;12.10;99.90;;;;;;5093485;28;1913;-70
2022/10/06 18:38:58;;;;;;;;;;;12.10;99.90;;;;;;5093568;28;821;-70
2022/10/06 18:41:26;;;;;;;;;;;12.00;99.90;;;;;;5093439;28;1118;-70
2022/10/06 18:43:53;;;;;;;;;;;12.00;99.90;;;;;;5093015;28;1287;-70
2022/10/06 18:49:09;;;;;;;;;;;11.80;99.90;;;;;;5093299;28;1177;-70
2022/10/06 18:51:36;;;;;;;;;;;11.60;99.90;;;;;;5093132;28;1189;-70
2022/10/06 18:54:03;;;;;;;;;;;11.40;99.90;;;;;;5086665;28;937;-70
2022/10/06 18:56:30;;;;;;;;;;;11.30;99.90;;;;;;5093304;28;1972;-70
2022/10/06 18:58:57;;;;;;;;;;;11.30;99.90;;;;;;5075378;28;1233;-70
2022/10/06 19:01:25;;;;;;;;;;;11.30;99.90;;;;;;5075176;28;1071;-70
2022/10/06 19:03:51;;;;;;;;;;;11.30;99.90;;;;;;5078312;28;3543;-70
2022/10/06 19:06:18;;;;;;;;;;;11.20;99.90;;;;;;5088806;28;3831;-69
2022/10/06 19:08:44;;;;;;;;;;;11.30;99.90;;;;;;5057155;28;2938;-70
2022/10/06 19:13:56;;;;;;;;;;;11.40;99.90;;;;;;5075083;28;1028;-70
2022/10/06 19:16:22;;;;;;;;;;;11.40;99.90;;;;;;5074036;28;1921;-69
2022/10/06 19:18:48;;;;;;;;;;;11.40;99.90;;;;;;5086508;28;2178;-70
2022/10/06 19:21:13;;;;;;;;;;;11.40;99.90;;;;;;5054885;28;3383;-70
2022/10/06 19:23:40;;;;;;;;;;;11.50;99.90;;;;;;5054661;28;1039;-70
2022/10/06 19:26:06;;;;;;;;;;;11.50;99.90;;;;;;5082392;28;1135;-70
2022/10/06 19:28:32;;;;;;;;;;;11.50;99.90;;;;;;5093380;28;1227;-70
2022/10/06 19:31:00;;;;;;;;;;;11.50;99.90;;;;;;5092090;28;996;-70
2022/10/06 19:33:26;;;;;;;;;;;11.40;99.90;;;;;;5093117;28;793;-70
2022/10/06 19:35:53;;;;;;;;;;;11.40;99.90;;;;;;5092096;28;1981;-70
2022/10/06 19:38:19;;;;;;;;;;;11.40;99.90;;;;;;5073576;28;1062;-70
2022/10/06 19:40:45;;;;;;;;;;;11.40;99.90;;;;;;5074662;28;1752;-70
2022/10/06 19:43:10;;;;;;;;;;;11.40;99.90;;;;;;5092676;28;1221;-70
2022/10/06 19:45:36;;;;;;;;;;;11.40;99.90;;;;;;5091376;28;1624;-70
2022/10/06 19:48:03;;;;;;;;;;;11.40;99.90;;;;;;5080639;28;1150;-70
2022/10/06 19:50:29;;;;;;;;;;;11.40;99.90;;;;;;5077633;28;1364;-70
2022/10/06 19:52:55;;;;;;;;;;;11.00;99.90;;;;;;5090729;28;1162;-70
2022/10/06 19:55:22;;;;;;;;;;;11.30;99.90;;;;;;5092683;28;1905;-70
2022/10/06 19:57:49;;;;;;;;;;;11.30;99.90;;;;;;5064577;28;1391;-70
2022/10/06 20:00:15;;;;;;;;;;;11.20;99.90;;;;;;5091387;28;1221;-70
2022/10/06 20:02:42;;;;;;;;;;;11.00;99.90;;;;;;5073945;28;1188;-70
2022/10/06 20:05:09;;;;;;;;;;;11.00;99.90;;;;;;5088436;28;884;-69
2022/10/06 20:07:35;;;;;;;;;;;10.90;99.90;;;;;;5091580;28;888;-70
2022/10/06 20:10:02;;;;;;;;;;;10.90;99.90;;;;;;5092239;28;1441;-70
2022/10/06 20:12:27;;;;;;;;;;;10.90;99.90;;;;;;5054027;28;1118;-70
2022/10/06 20:14:53;;;;;;;;;;;10.90;99.90;;;;;;5071290;28;1914;-70
2022/10/06 20:17:19;;;;;;;;;;;10.80;99.90;;;;;;5072664;28;1028;-70
2022/10/06 20:19:47;;;;;;;;;;;10.90;99.90;;;;;;5072500;28;1774;-71
2022/10/06 20:22:12;;;;;;;;;;;10.90;99.90;;;;;;5083526;28;1035;-70
2022/10/06 20:24:38;;;;;;;;;;;10.90;99.90;;;;;;5072256;28;993;-70
2022/10/06 20:27:04;;;;;;;;;;;10.90;99.90;;;;;;5056507;28;1324;-72
2022/10/06 20:29:30;;;;;;;;;;;11.00;99.90;;;;;;5073513;28;1162;-72
2022/10/06 20:31:57;;;;;;;;;;;10.90;99.90;;;;;;5092431;28;884;-71
2022/10/06 20:34:26;;;;;;;;;;;10.90;99.90;;;;;;5072614;28;1971;-72
2022/10/06 20:36:51;;;;;;;;;;;10.90;99.90;;;;;;5075017;28;1511;-72
2022/10/06 20:42:05;;;;;;;;;;;10.70;99.90;;;;;;5094841;28;945;-72
2022/10/06 20:44:31;;;;;;;;;;;10.70;99.90;;;;;;5088047;28;1592;-71
2022/10/06 20:46:57;;;;;;;;;;;10.70;99.90;;;;;;5078259;28;980;-72
2022/10/06 20:49:23;;;;;;;;;;;10.70;99.90;;;;;;5077330;28;1337;-72
2022/10/06 20:51:50;;;;;;;;;;;10.80;99.90;;;;;;5096264;28;853;-72
2022/10/06 20:54:17;;;;;;;;;;;10.80;99.90;;;;;;5096348;28;1218;-71
2022/10/06 20:56:43;;;;;;;;;;;10.80;99.90;;;;;;5094441;28;1905;-72
2022/10/06 20:59:10;;;;;;;;;;;10.90;99.90;;;;;;5084673;28;3442;-71
2022/10/06 21:01:37;;;;;;;;;;;10.80;99.90;;;;;;5084805;28;3662;-72
2022/10/06 21:04:03;;;;;;;;;;;10.80;99.90;;;;;;5083703;28;3020;-68
2022/10/06 21:06:29;;;;;;;;;;;10.70;99.90;;;;;;5095703;28;2645;-72
2022/10/06 21:08:55;;;;;;;;;;;10.70;99.90;;;;;;5095676;28;1654;-70
2022/10/06 21:11:22;;;;;;;;;;;10.60;99.90;;;;;;5094431;28;1990;-68
2022/10/06 21:13:51;;;;;;;;;;;10.60;99.90;;;;;;5096054;28;1027;-73
2022/10/06 21:16:21;;;;;;;;;;;10.60;99.90;;;;;;5094207;28;1956;-73
2022/10/06 21:18:46;;;;;;;;;;;10.50;99.90;;;;;;5096232;28;1070;-73
2022/10/06 21:21:12;;;;;;;;;;;10.50;99.90;;;;;;5095413;28;1143;-74
2022/10/06 21:23:39;;;;;;;;;;;10.50;99.90;;;;;;5095289;28;829;-73
2022/10/06 21:26:06;;;;;;;;;;;10.50;99.90;;;;;;5095752;28;806;-73
2022/10/06 21:28:33;;;;;;;;;;;10.50;99.90;;;;;;5095453;28;957;-73
2022/10/06 21:31:00;;;;;;;;;;;10.50;99.90;;;;;;5095019;28;1316;-73
2022/10/06 21:33:25;;;;;;;;;;;10.50;99.90;;;;;;5077369;28;1095;-72
2022/10/06 21:36:01;;;;;;;;;;;10.50;99.90;;;;;;5095442;28;1914;-73
2022/10/06 21:38:27;;;;;;;;;;;10.40;99.90;;;;;;5094568;28;1055;-73
2022/10/06 21:40:55;;;;;;;;;;;10.40;99.90;;;;;;5077664;28;854;-73
2022/10/06 21:43:21;;;;;;;;;;;10.40;99.90;;;;;;5095321;28;1247;-73
2022/10/06 21:45:47;;;;;;;;;;;10.30;99.90;;;;;;5094843;28;1032;-73
2022/10/06 21:48:13;;;;;;;;;;;10.30;99.90;;;;;;5094680;28;1232;-73
2022/10/06 21:50:38;;;;;;;;;;;10.20;99.90;;;;;;5095302;28;846;-72
2022/10/06 21:53:04;;;;;;;;;;;10.20;99.90;;;;;;5076355;28;1059;-73
2022/10/06 21:55:30;;;;;;;;;;;10.20;99.90;;;;;;5094743;28;1906;-73
2022/10/06 21:57:55;;;;;;;;;;;10.20;99.90;;;;;;5094906;28;1020;-73
2022/10/06 22:00:21;;;;;;;;;;;10.20;99.90;;;;;;5090470;28;1963;-72
2022/10/06 22:02:47;;;;;;;;;;;10.20;99.90;;;;;;5086300;28;2667;-73
2022/10/06 22:05:12;;;;;;;;;;;10.20;99.90;;;;;;5085629;28;1230;-73
2022/10/06 22:07:38;;;;;;;;;;;10.10;99.90;;;;;;5076456;28;1023;-73
2022/10/06 22:10:04;;;;;;;;;;;10.10;99.90;;;;;;5071467;28;1636;-73
2022/10/06 22:12:29;;;;;;;;;;;10.10;99.90;;;;;;5093252;28;1259;-73
2022/10/06 22:14:57;;;;;;;;;;;10.10;99.90;;;;;;5082561;28;1979;-73
2022/10/06 22:17:24;;;;;;;;;;;10.10;99.90;;;;;;5084548;28;1226;-73
2022/10/06 22:19:50;;;;;;;;;;;10.10;99.90;;;;;;5084245;28;1388;-72
2022/10/06 22:22:15;;;;;;;;;;;10.20;99.90;;;;;;5085627;28;1274;-73
2022/10/06 22:24:41;;;;;;;;;;;10.20;99.90;;;;;;5094914;28;1078;-73
2022/10/06 22:27:07;;;;;;;;;;;10.20;99.90;;;;;;5093681;28;980;-73
2022/10/06 22:29:32;;;;;;;;;;;10.20;99.90;;;;;;5094752;28;1154;-72
2022/10/06 22:31:58;;;;;;;;;;;10.20;99.90;;;;;;5094349;28;1158;-73
2022/10/06 22:34:24;;;;;;;;;;;10.30;99.90;;;;;;5093884;28;1047;-73
2022/10/06 22:36:49;;;;;;;;;;;10.30;99.90;;;;;;5094477;28;1911;-73
2022/10/06 22:39:15;;;;;;;;;;;10.30;99.90;;;;;;5094662;28;1007;-73
2022/10/06 22:41:41;;;;;;;;;;;10.40;99.90;;;;;;5093050;28;1114;-73
2022/10/06 22:44:06;;;;;;;;;;;10.40;99.90;;;;;;5075621;28;1647;-73
2022/10/06 22:46:34;;;;;;;;;;;10.40;99.90;;;;;;5094353;28;804;-73
2022/10/06 22:48:59;;;;;;;;;;;10.40;99.90;;;;;;5093338;28;1205;-72
2022/10/06 22:51:25;;;;;;;;;;;10.40;99.90;;;;;;5076041;28;925;-73
2022/10/06 22:53:53;;;;;;;;;;;10.40;99.90;;;;;;5094301;28;1035;-73
2022/10/06 22:56:19;;;;;;;;;;;10.50;99.90;;;;;;5093531;28;1972;-73
2022/10/06 22:58:44;;;;;;;;;;;10.50;99.90;;;;;;5092781;28;1175;-73
2022/10/06 23:01:11;;;;;;;;;;;10.50;99.90;;;;;;5094106;28;1029;-73
2022/10/06 23:03:37;;;;;;;;;;;10.60;99.90;;;;;;5093369;28;1000;-73
2022/10/06 23:06:04;;;;;;;;;;;10.60;99.90;;;;;;5075244;28;1225;-73
2022/10/06 23:08:29;;;;;;;;;;;10.70;99.90;;;;;;5092468;28;1623;-72
2022/10/06 23:11:01;;;;;;;;;;;10.60;99.90;;;;;;5089175;28;1592;-73
2022/10/06 23:13:28;;;;;;;;;;;10.70;99.90;;;;;;5093044;28;888;-73
2022/10/06 23:15:59;;;;;;;;;;;10.70;99.90;;;;;;5074263;28;1914;-73
2022/10/06 23:18:24;;;;;;;;;;;10.60;99.90;;;;;;5093861;28;1141;-73
2022/10/06 23:20:50;;;;;;;;;;;10.60;99.90;;;;;;5075108;28;1079;-73
2022/10/06 23:23:16;;;;;;;;;;;10.60;99.90;;;;;;5074751;28;1024;-73
2022/10/06 23:25:44;;;;;;;;;;;10.50;99.90;;;;;;5093130;28;1205;-73
2022/10/06 23:28:09;;;;;;;;;;;10.50;99.90;;;;;;5093280;28;1031;-73
2022/10/06 23:30:35;;;;;;;;;;;10.40;99.90;;;;;;5075005;28;1023;-73
2022/10/06 23:33:01;;;;;;;;;;;10.40;99.90;;;;;;5083187;28;1223;-73
2022/10/06 23:35:27;;;;;;;;;;;10.40;99.90;;;;;;5084854;28;1983;-72
2022/10/06 23:37:53;;;;;;;;;;;10.40;99.90;;;;;;5081219;28;1259;-73
2022/10/06 23:40:18;;;;;;;;;;;10.30;99.90;;;;;;5082297;28;1235;-73
2022/10/06 23:42:44;;;;;;;;;;;10.30;99.90;;;;;;5083291;28;1227;-73
2022/10/06 23:45:09;;;;;;;;;;;10.20;99.90;;;;;;5081951;28;1283;-73
2022/10/06 23:47:35;;;;;;;;;;;10.20;99.90;;;;;;5063754;28;1230;-73
2022/10/06 23:50:01;;;;;;;;;;;10.20;99.90;;;;;;5086759;28;1239;-73
2022/10/06 23:52:26;;;;;;;;;;;10.20;99.90;;;;;;5092248;28;1252;-73
2022/10/06 23:54:52;;;;;;;;;;;10.20;99.90;;;;;;5075043;28;1988;-73
2022/10/06 23:57:18;;;;;;;;;;;10.10;99.90;;;;;;5071394;28;1267;-73
2022/10/06 23:59:43;;;;;;;;;;;10.10;99.90;;;;;;5078384;28;1217;-73
